EZY96QC EDDL-EGKK
Flight info
| Callsign | EZY96QC |
|---|---|
| Flight time | N/A |
| Altitude | 34000 |
| Route | MODRU7Z MODRU Z717 MAS UM617 SOGRI DCT DENUT L610 TEBRA |
| Aircraft | A320/M-SDE2E3FGHIJ1RWXYZ/LB1 |
Departure
| Time | 2026-05-05 15:30 |
|---|---|
| Airport | Düsseldorf Airport (EDDL) |
Arrival
| Time | N/A |
|---|---|
| Airport | London Gatwick Airport (EGKK) |
| Time | Latitude | Longitude | Altitude | Speed | Heading |
|---|---|---|---|---|---|
| 2026-05-05 15:10 | 51.28068 | 6.76290 | 132 ft | 0 kts | 185° |
| 2026-05-05 15:23 | 51.28076 | 6.76291 | 132 ft | 2 kts | 185° |
| 2026-05-05 15:23 | 51.28092 | 6.76293 | 133 ft | 2 kts | 185° |
| 2026-05-05 15:23 | 51.28109 | 6.76298 | 133 ft | 2 kts | 201° |
| 2026-05-05 15:24 | 51.28124 | 6.76310 | 133 ft | 3 kts | 231° |
| 2026-05-05 15:24 | 51.28133 | 6.76335 | 133 ft | 3 kts | 269° |
| 2026-05-05 15:24 | 51.28132 | 6.76355 | 133 ft | 0 kts | 295° |
| 2026-05-05 15:26 | 51.28133 | 6.76349 | 133 ft | 0 kts | 295° |
| 2026-05-05 15:26 | 51.28146 | 6.76310 | 134 ft | 7 kts | 297° |
| 2026-05-05 15:26 | 51.28189 | 6.76246 | 134 ft | 10 kts | 319° |
| 2026-05-05 15:27 | 51.28174 | 6.76113 | 133 ft | 19 kts | 229° |
| 2026-05-05 15:27 | 51.28101 | 6.75963 | 135 ft | 13 kts | 238° |
| 2026-05-05 15:27 | 51.28037 | 6.75822 | 132 ft | 18 kts | 233° |
| 2026-05-05 15:27 | 51.27952 | 6.75644 | 129 ft | 22 kts | 232° |
| 2026-05-05 15:28 | 51.27861 | 6.75458 | 122 ft | 19 kts | 233° |
| 2026-05-05 15:28 | 51.27869 | 6.75335 | 124 ft | 13 kts | 321° |
| 2026-05-05 15:28 | 51.27964 | 6.75267 | 123 ft | 12 kts | 6° |
| 2026-05-05 15:28 | 51.28013 | 6.75314 | 120 ft | 0 kts | 51° |
| 2026-05-05 15:29 | 51.28030 | 6.75348 | 119 ft | 20 kts | 53° |
| 2026-05-05 15:29 | 51.28282 | 6.75870 | 131 ft | 96 kts | 54° |
| 2026-05-05 15:29 | 51.28820 | 6.76991 | 143 ft | 155 kts | 51° |
| 2026-05-05 15:30 | 51.29457 | 6.78390 | 868 ft | 151 kts | 54° |
| 2026-05-05 15:30 | 51.30054 | 6.79783 | 1680 ft | 152 kts | 54° |
| 2026-05-05 15:30 | 51.30657 | 6.81151 | 2381 ft | 151 kts | 54° |
| 2026-05-05 15:30 | 51.31304 | 6.82495 | 2999 ft | 153 kts | 52° |
| 2026-05-05 15:31 | 51.31977 | 6.83860 | 3514 ft | 162 kts | 52° |
| 2026-05-05 15:31 | 51.32703 | 6.85344 | 3905 ft | 177 kts | 52° |
| 2026-05-05 15:31 | 51.33491 | 6.86977 | 4287 ft | 193 kts | 53° |
| 2026-05-05 15:31 | 51.34421 | 6.88637 | 4669 ft | 209 kts | 41° |
| 2026-05-05 15:32 | 51.35647 | 6.90030 | 5030 ft | 224 kts | 28° |
| 2026-05-05 15:32 | 51.37165 | 6.90979 | 5440 ft | 245 kts | 13° |
| 2026-05-05 15:32 | 51.38906 | 6.91461 | 6041 ft | 263 kts | 8° |
| 2026-05-05 15:32 | 51.40764 | 6.91945 | 6644 ft | 278 kts | 9° |
| 2026-05-05 15:33 | 51.42702 | 6.92460 | 7397 ft | 285 kts | 9° |
| 2026-05-05 15:33 | 51.44676 | 6.92993 | 8237 ft | 290 kts | 9° |
| 2026-05-05 15:33 | 51.46693 | 6.93197 | 9059 ft | 294 kts | 352° |
| 2026-05-05 15:33 | 51.48648 | 6.92279 | 9878 ft | 295 kts | 330° |
| 2026-05-05 15:34 | 51.50308 | 6.90274 | 10410 ft | 305 kts | 309° |
| 2026-05-05 15:34 | 51.51426 | 6.87319 | 10874 ft | 317 kts | 289° |
| 2026-05-05 15:34 | 51.52227 | 6.83930 | 11311 ft | 332 kts | 288° |
| 2026-05-05 15:34 | 51.53053 | 6.80422 | 11978 ft | 339 kts | 289° |
| 2026-05-05 15:35 | 51.53897 | 6.76852 | 12721 ft | 343 kts | 289° |
| 2026-05-05 15:35 | 51.54183 | 6.75646 | 12973 ft | 345 kts | 289° |